Time;durP1;ratioP1;P1;durP2;ratioP2;P2;SDS_P1;SDS_P2;PMS_P1;PMS_P2;Temp;Humidity;BMP_temperature;BMP_pressure;BME280_temperature;BME280_humidity;BME280_pressure;Samples;Min_cycle;Max_cycle;Signal;HPM_P1;HPM_P2
2021/12/24 00:00:18;;;;;;;50.78;22.77;;;;;;;;;;5069534;28;20596;-60
2021/12/24 00:02:45;;;;;;;49.50;22.03;;;;;;;;;;5070957;28;20092;-60
2021/12/24 00:05:11;;;;;;;50.22;22.58;;;;;;;;;;5069980;28;21245;-60
2021/12/24 00:07:41;;;;;;;53.78;22.83;;;;;;;;;;5071041;28;20056;-59
2021/12/24 00:10:08;;;;;;;42.20;21.17;;;;;;;;;;5070434;28;20063;-60
2021/12/24 00:12:37;;;;;;;46.22;22.08;;;;;;;;;;5070908;28;20079;-60
2021/12/24 00:15:16;;;;;;;52.05;23.58;;;;;;;;;;5071402;28;20511;-60
2021/12/24 00:17:42;;;;;;;41.92;20.58;;;;;;;;;;5060183;28;20053;-60
2021/12/24 00:36:26;;;;;;;41.42;18.95;;;;;;;;;;5054340;28;20057;-59
2021/12/24 00:38:52;;;;;;;36.45;17.98;;;;;;;;;;5059695;28;20045;-60
2021/12/24 00:41:19;;;;;;;38.30;18.73;;;;;;;;;;5070593;28;20428;-60
2021/12/24 00:43:45;;;;;;;34.47;17.20;;;;;;;;;;5069991;28;20064;-60
2021/12/24 00:46:12;;;;;;;39.15;19.02;;;;;;;;;;5069187;28;20057;-60
2021/12/24 00:48:38;;;;;;;35.13;18.08;;;;;;;;;;5068339;28;20052;-60
2021/12/24 00:56:04;;;;;;;38.33;17.45;;;;;;;;;;5068485;28;20140;-60
2021/12/24 00:58:31;;;;;;;33.30;17.13;;;;;;;;;;5070264;28;20507;-61
2021/12/24 01:00:57;;;;;;;35.47;17.25;;;;;;;;;;5070553;28;20503;-60
2021/12/24 01:03:24;;;;;;;37.42;18.05;;;;;;;;;;5070455;28;20147;-60
2021/12/24 01:05:50;;;;;;;35.22;17.20;;;;;;;;;;5069319;28;20140;-59
2021/12/24 01:08:17;;;;;;;36.28;18.13;;;;;;;;;;5068485;28;20159;-60
2021/12/24 01:10:45;;;;;;;37.85;18.92;;;;;;;;;;5068774;28;20057;-60
2021/12/24 01:13:12;;;;;;;37.65;17.60;;;;;;;;;;5069627;28;20063;-60
2021/12/24 01:15:50;;;;;;;36.00;17.60;;;;;;;;;;5070080;28;20053;-60
2021/12/24 01:18:27;;;;;;;39.63;17.67;;;;;;;;;;5068060;28;20057;-60
2021/12/24 01:21:08;;;;;;;34.88;17.08;;;;;;;;;;5069283;28;20492;-59
2021/12/24 01:23:44;;;;;;;37.55;17.85;;;;;;;;;;5069754;28;20537;-60
2021/12/24 01:26:17;;;;;;;32.72;16.58;;;;;;;;;;5069879;28;20088;-60
2021/12/24 01:45:17;;;;;;;48.58;20.92;;;;;;;;;;5049700;28;20064;-59
2021/12/24 01:47:44;;;;;;;46.85;22.00;;;;;;;;;;5057523;28;20936;-59
2021/12/24 01:50:11;;;;;;;60.45;22.77;;;;;;;;;;5069358;28;20045;-59
2021/12/24 01:52:38;;;;;;;54.42;22.13;;;;;;;;;;5069355;28;20057;-59
2021/12/24 01:55:06;;;;;;;57.75;23.27;;;;;;;;;;5069064;28;20049;-60
2021/12/24 01:57:32;;;;;;;62.83;24.58;;;;;;;;;;5063093;28;20434;-59
2021/12/24 01:59:59;;;;;;;57.38;23.63;;;;;;;;;;5068556;28;20061;-60
2021/12/24 02:02:27;;;;;;;48.80;22.25;;;;;;;;;;5067444;28;20076;-59
2021/12/24 02:04:54;;;;;;;53.90;23.70;;;;;;;;;;5068731;28;20079;-60
2021/12/24 02:07:20;;;;;;;54.78;22.63;;;;;;;;;;5067946;28;20052;-59
2021/12/24 02:09:47;;;;;;;57.42;23.58;;;;;;;;;;5068095;28;20106;-60
2021/12/24 02:12:15;;;;;;;55.10;23.20;;;;;;;;;;5049606;28;20064;-60
2021/12/24 02:14:43;;;;;;;59.05;22.90;;;;;;;;;;5048693;28;20053;-60
2021/12/24 02:30:44;;;;;;;59.33;22.52;;;;;;;;;;5068402;28;20130;-60
2021/12/24 02:33:10;;;;;;;55.35;19.77;;;;;;;;;;5068843;28;20053;-60
2021/12/24 02:35:37;;;;;;;56.80;19.60;;;;;;;;;;5067222;28;20049;-60
2021/12/24 02:38:04;;;;;;;45.42;19.40;;;;;;;;;;5064138;28;20191;-60
2021/12/24 02:40:31;;;;;;;48.60;19.73;;;;;;;;;;5046463;28;20264;-59
2021/12/24 02:42:58;;;;;;;48.15;19.15;;;;;;;;;;5055471;28;20055;-60
2021/12/24 02:45:27;;;;;;;43.73;17.40;;;;;;;;;;5068602;28;20080;-60
2021/12/24 02:56:01;;;;;;;35.42;15.70;;;;;;;;;;5048881;28;20059;-59
2021/12/24 02:58:35;;;;;;;35.40;15.65;;;;;;;;;;5065479;28;20508;-60
2021/12/24 03:01:02;;;;;;;35.55;14.23;;;;;;;;;;5068463;28;20064;-60
2021/12/24 03:03:28;;;;;;;39.78;14.75;;;;;;;;;;5067835;28;20148;-59
2021/12/24 03:05:54;;;;;;;32.75;12.90;;;;;;;;;;5067976;28;20111;-62
2021/12/24 03:08:21;;;;;;;37.30;13.43;;;;;;;;;;5066849;28;20077;-59
2021/12/24 03:10:47;;;;;;;36.10;13.88;;;;;;;;;;5067761;28;20041;-59
2021/12/24 03:13:13;;;;;;;34.00;12.27;;;;;;;;;;5068480;28;20075;-59
2021/12/24 03:15:40;;;;;;;31.02;13.10;;;;;;;;;;5068487;28;20060;-59
2021/12/24 03:18:06;;;;;;;39.00;12.73;;;;;;;;;;5064843;28;20049;-59
2021/12/24 03:20:34;;;;;;;31.92;12.88;;;;;;;;;;5067905;28;20055;-59
2021/12/24 03:23:07;;;;;;;30.92;13.18;;;;;;;;;;5068163;28;20075;-59
2021/12/24 03:25:34;;;;;;;35.55;12.63;;;;;;;;;;5068039;28;20118;-59
2021/12/24 03:28:01;;;;;;;38.97;13.18;;;;;;;;;;5065153;28;20500;-60
2021/12/24 03:30:27;;;;;;;28.60;12.90;;;;;;;;;;5067893;28;20614;-60
2021/12/24 03:32:54;;;;;;;33.42;13.02;;;;;;;;;;5064449;28;20609;-59
2021/12/24 03:35:20;;;;;;;36.10;12.90;;;;;;;;;;5071354;28;20059;-60
2021/12/24 03:37:46;;;;;;;34.90;12.73;;;;;;;;;;5071869;28;20078;-59
2021/12/24 03:40:13;;;;;;;33.47;13.40;;;;;;;;;;5071431;28;20168;-59
2021/12/24 03:42:41;;;;;;;34.97;13.18;;;;;;;;;;5069754;28;20140;-60
2021/12/24 03:45:22;;;;;;;;;;;;;;;;;;5070904;28;20092;-59
2021/12/24 03:47:55;;;;;;;36.90;13.10;;;;;;;;;;5065599;28;45232;-59
2021/12/24 03:50:24;;;;;;;34.92;12.85;;;;;;;;;;5051114;28;20056;-59
2021/12/24 03:55:37;;;;;;;38.42;12.43;;;;;;;;;;5059007;28;20537;-60
2021/12/24 03:58:03;;;;;;;37.33;12.75;;;;;;;;;;5069965;28;20064;-59
2021/12/24 04:00:30;;;;;;;30.92;11.82;;;;;;;;;;5070861;28;20079;-59
2021/12/24 04:02:57;;;;;;;33.22;12.82;;;;;;;;;;5069838;28;20245;-59
2021/12/24 04:05:24;;;;;;;29.58;12.90;;;;;;;;;;5071053;28;20048;-59
2021/12/24 04:07:50;;;;;;;40.45;12.65;;;;;;;;;;5071248;28;20064;-59
2021/12/24 04:10:27;;;;;;;37.70;14.20;;;;;;;;;;5071822;28;20073;-59
2021/12/24 04:12:54;;;;;;;31.75;12.32;;;;;;;;;;5069870;28;20478;-60
2021/12/24 04:15:20;;;;;;;36.95;11.95;;;;;;;;;;5070724;28;20045;-60
2021/12/24 04:17:48;;;;;;;38.90;11.63;;;;;;;;;;5070198;28;20059;-59
2021/12/24 04:25:44;;;;;;;29.33;11.30;;;;;;;;;;5070362;28;20499;-60
2021/12/24 04:28:10;;;;;;;30.30;9.73;;;;;;;;;;5070376;28;20430;-59
2021/12/24 04:30:43;;;;;;;27.85;9.98;;;;;;;;;;5068292;28;20049;-59
2021/12/24 04:33:57;;;;;;;27.40;9.30;;;;;;;;;;5064900;28;20515;-59
2021/12/24 04:36:13;;;;;;;29.40;9.93;;;;;;;;;;5066748;28;20530;-59
2021/12/24 04:51:04;;;;;;;33.33;8.80;;;;;;;;;;5068981;28;20057;-59
2021/12/24 05:03:41;;;;;;;32.22;7.85;;;;;;;;;;5069058;28;20057;-59
2021/12/24 05:06:14;;;;;;;24.45;7.28;;;;;;;;;;5069713;28;20053;-59
2021/12/24 05:08:56;;;;;;;30.55;8.05;;;;;;;;;;5070438;28;20053;-59
2021/12/24 05:11:23;;;;;;;27.13;7.80;;;;;;;;;;5069088;28;20059;-59
2021/12/24 05:13:50;;;;;;;27.02;7.05;;;;;;;;;;5067332;28;20063;-59
2021/12/24 05:21:33;;;;;;;31.90;6.85;;;;;;;;;;5068880;28;20053;-59
2021/12/24 05:24:01;;;;;;;22.30;6.32;;;;;;;;;;5069225;28;20504;-59
2021/12/24 05:26:27;;;;;;;21.33;6.78;;;;;;;;;;5069604;28;20059;-59
2021/12/24 05:28:54;;;;;;;19.70;6.82;;;;;;;;;;5068558;28;20144;-59
2021/12/24 05:31:20;;;;;;;23.02;6.47;;;;;;;;;;5070553;28;20064;-59
2021/12/24 05:33:46;;;;;;;30.50;6.80;;;;;;;;;;5069626;28;20045;-59
2021/12/24 05:36:13;;;;;;;30.60;6.80;;;;;;;;;;5068847;28;20053;-59
2021/12/24 05:38:39;;;;;;;22.42;6.45;;;;;;;;;;5069577;28;20140;-59
2021/12/24 05:41:05;;;;;;;20.95;6.10;;;;;;;;;;5068497;28;20049;-59
2021/12/24 05:43:32;;;;;;;18.48;5.97;;;;;;;;;;5065768;28;20049;-59
2021/12/24 05:45:58;;;;;;;25.48;7.10;;;;;;;;;;5068748;28;20565;-59
2021/12/24 05:48:25;;;;;;;27.35;6.38;;;;;;;;;;5069058;28;20053;-59
2021/12/24 05:50:51;;;;;;;22.13;5.93;;;;;;;;;;5067736;28;20260;-59
2021/12/24 05:53:18;;;;;;;20.95;6.10;;;;;;;;;;5067310;28;20049;-59
2021/12/24 05:55:44;;;;;;;24.00;6.68;;;;;;;;;;5052308;28;20865;-59
2021/12/24 05:58:10;;;;;;;17.95;6.50;;;;;;;;;;5067895;28;20057;-59
2021/12/24 06:00:38;;;;;;;20.80;5.68;;;;;;;;;;5067795;28;20057;-58
2021/12/24 06:03:06;;;;;;;21.45;5.47;;;;;;;;;;5069101;28;20056;-59
2021/12/24 06:05:34;;;;;;;33.88;6.45;;;;;;;;;;5068913;28;20088;-59
2021/12/24 06:08:00;;;;;;;28.60;5.57;;;;;;;;;;5068495;28;20484;-59
2021/12/24 06:10:27;;;;;;;23.67;6.32;;;;;;;;;;5067900;28;20380;-60
2021/12/24 06:12:53;;;;;;;17.75;5.32;;;;;;;;;;5069262;28;20056;-59
2021/12/24 06:15:23;;;;;;;22.80;5.82;;;;;;;;;;5067536;28;20057;-59
2021/12/24 06:17:53;;;;;;;29.80;6.65;;;;;;;;;;5068659;28;20577;-59
2021/12/24 06:20:20;;;;;;;30.85;6.47;;;;;;;;;;5068645;28;20052;-60
2021/12/24 06:22:46;;;;;;;23.23;5.65;;;;;;;;;;5069202;28;20163;-59
2021/12/24 06:25:14;;;;;;;22.20;5.65;;;;;;;;;;5066467;28;20052;-59
2021/12/24 06:27:40;;;;;;;22.75;5.10;;;;;;;;;;5068832;28;20052;-58
2021/12/24 06:30:07;;;;;;;29.17;6.05;;;;;;;;;;5069319;28;20053;-59
2021/12/24 06:32:34;;;;;;;30.45;7.25;;;;;;;;;;5068976;28;20172;-59
2021/12/24 06:35:00;;;;;;;23.60;5.55;;;;;;;;;;5067675;28;20176;-58
2021/12/24 06:37:26;;;;;;;28.42;5.32;;;;;;;;;;5068976;28;20056;-58
2021/12/24 06:39:54;;;;;;;22.52;5.53;;;;;;;;;;5068284;28;20181;-59
2021/12/24 06:42:25;;;;;;;30.13;6.20;;;;;;;;;;5069051;28;20878;-58
2021/12/24 06:44:52;;;;;;;24.67;5.00;;;;;;;;;;5067543;28;20640;-59
2021/12/24 06:47:19;;;;;;;25.30;5.32;;;;;;;;;;5067648;28;20136;-59
2021/12/24 06:49:45;;;;;;;29.23;6.05;;;;;;;;;;5068149;28;20438;-59
2021/12/24 06:52:11;;;;;;;35.53;6.32;;;;;;;;;;5057891;28;20052;-58
2021/12/24 06:54:38;;;;;;;19.92;5.20;;;;;;;;;;5048669;28;20459;-59
2021/12/24 06:57:11;;;;;;;31.17;6.18;;;;;;;;;;5048548;28;20060;-59
2021/12/24 06:59:38;;;;;;;25.83;5.65;;;;;;;;;;5058849;28;20060;-59
2021/12/24 07:02:04;;;;;;;24.92;5.88;;;;;;;;;;5063876;28;20055;-59
2021/12/24 07:04:31;;;;;;;18.48;5.03;;;;;;;;;;5061189;28;20057;-60
2021/12/24 07:06:57;;;;;;;32.08;6.28;;;;;;;;;;5066535;28;20057;-58
2021/12/24 07:09:23;;;;;;;24.35;5.47;;;;;;;;;;5066091;28;20152;-59
2021/12/24 07:11:50;;;;;;;27.98;5.95;;;;;;;;;;5067355;28;20111;-59
2021/12/24 07:14:16;;;;;;;31.85;6.03;;;;;;;;;;5067223;28;20537;-59
2021/12/24 07:16:45;;;;;;;31.02;5.70;;;;;;;;;;5053063;28;20056;-59
2021/12/24 07:19:11;;;;;;;24.73;4.88;;;;;;;;;;5065215;28;20056;-58
2021/12/24 07:21:38;;;;;;;29.98;5.80;;;;;;;;;;5066295;28;20076;-59
2021/12/24 07:24:06;;;;;;;34.88;6.22;;;;;;;;;;5048937;28;20058;-58
2021/12/24 07:26:33;;;;;;;31.05;6.43;;;;;;;;;;5048458;28;20518;-59
2021/12/24 07:29:00;;;;;;;27.55;6.10;;;;;;;;;;5047410;28;20067;-59
2021/12/24 07:31:26;;;;;;;32.75;6.20;;;;;;;;;;5059311;28;20131;-59
2021/12/24 07:33:53;;;;;;;31.05;6.50;;;;;;;;;;5056603;28;20056;-59
2021/12/24 07:36:19;;;;;;;32.92;6.53;;;;;;;;;;5058183;28;20056;-59
2021/12/24 07:38:45;;;;;;;32.42;6.95;;;;;;;;;;5046836;28;20061;-58
2021/12/24 07:41:14;;;;;;;29.38;6.47;;;;;;;;;;5047927;28;20144;-58
2021/12/24 07:43:40;;;;;;;;;;;;;;;;;;5047927;28;20140;-58
2021/12/24 07:46:06;;;;;;;29.75;6.85;;;;;;;;;;5055119;28;43555;-60
2021/12/24 07:48:43;;;;;;;31.30;7.55;;;;;;;;;;5059021;28;20053;-59
2021/12/24 07:53:36;;;;;;;30.50;6.72;;;;;;;;;;5067321;28;20044;-58
2021/12/24 07:56:02;;;;;;;27.27;6.35;;;;;;;;;;5067585;28;20055;-59
2021/12/24 07:58:28;;;;;;;24.92;6.07;;;;;;;;;;5067659;28;20053;-59
2021/12/24 08:00:55;;;;;;;28.55;6.35;;;;;;;;;;5067681;28;20053;-59
2021/12/24 08:03:24;;;;;;;26.30;6.95;;;;;;;;;;5066960;28;20072;-58
2021/12/24 08:05:50;;;;;;;33.10;6.32;;;;;;;;;;5067101;28;20053;-58
2021/12/24 08:08:17;;;;;;;30.13;7.07;;;;;;;;;;5067135;28;20055;-59
2021/12/24 08:10:43;;;;;;;26.83;6.40;;;;;;;;;;5067241;28;20057;-59
2021/12/24 08:13:10;;;;;;;23.35;5.82;;;;;;;;;;5065389;28;20418;-59
2021/12/24 08:15:36;;;;;;;25.15;6.20;;;;;;;;;;5061380;28;20049;-58
2021/12/24 08:18:08;;;;;;;27.50;6.88;;;;;;;;;;5057594;28;20057;-58
2021/12/24 08:20:34;;;;;;;19.55;5.25;;;;;;;;;;5066133;28;20081;-59
2021/12/24 08:23:00;;;;;;;29.75;6.00;;;;;;;;;;5061965;28;20545;-58
2021/12/24 08:25:27;;;;;;;29.67;7.30;;;;;;;;;;5058751;28;20056;-58
2021/12/24 08:27:53;;;;;;;30.13;5.88;;;;;;;;;;5066331;28;20794;-59
2021/12/24 08:30:20;;;;;;;33.80;6.63;;;;;;;;;;5060153;28;20053;-59
2021/12/24 08:32:46;;;;;;;24.20;5.47;;;;;;;;;;5069664;28;20045;-59
2021/12/24 08:35:15;;;;;;;24.58;6.68;;;;;;;;;;5065991;28;20061;-59
2021/12/24 08:37:41;;;;;;;30.00;5.90;;;;;;;;;;5067555;28;20530;-59
2021/12/24 08:40:08;;;;;;;31.70;5.60;;;;;;;;;;5058452;28;20874;-59
2021/12/24 08:42:35;;;;;;;39.00;5.28;;;;;;;;;;5067902;28;20059;-59
2021/12/24 08:45:02;;;;;;;29.77;6.18;;;;;;;;;;5065372;28;20063;-59
2021/12/24 08:47:28;;;;;;;31.77;5.90;;;;;;;;;;5064918;28;20148;-60
2021/12/24 08:49:54;;;;;;;28.30;5.93;;;;;;;;;;5058804;28;20057;-59
2021/12/24 08:52:21;;;;;;;28.40;5.70;;;;;;;;;;5069698;28;20085;-59
2021/12/24 08:54:47;;;;;;;28.65;5.78;;;;;;;;;;5068624;28;20054;-60
2021/12/24 08:57:13;;;;;;;27.23;4.65;;;;;;;;;;5068969;28;20084;-60
2021/12/24 08:59:40;;;;;;;39.30;6.72;;;;;;;;;;5067435;28;20521;-60
2021/12/24 09:02:06;;;;;;;28.60;5.45;;;;;;;;;;5067946;28;20053;-61
2021/12/24 09:04:33;;;;;;;27.85;6.35;;;;;;;;;;5065180;28;20057;-61
2021/12/24 09:06:59;;;;;;;25.95;4.22;;;;;;;;;;5054300;28;20045;-61
2021/12/24 09:09:27;;;;;;;29.73;4.57;;;;;;;;;;5066175;28;20543;-61
2021/12/24 09:11:54;;;;;;;28.52;5.22;;;;;;;;;;5069332;28;20048;-61
2021/12/24 09:14:20;;;;;;;25.40;4.57;;;;;;;;;;5065831;28;20514;-61
2021/12/24 09:16:47;;;;;;;36.17;5.03;;;;;;;;;;5068611;28;20053;-61
2021/12/24 09:19:18;;;;;;;31.65;6.18;;;;;;;;;;5049641;28;20061;-60
2021/12/24 09:21:45;;;;;;;31.33;4.72;;;;;;;;;;5061085;28;20152;-61
2021/12/24 09:24:12;;;;;;;27.42;7.47;;;;;;;;;;5055578;28;20172;-61
2021/12/24 09:26:39;;;;;;;24.52;4.65;;;;;;;;;;5068991;28;20207;-61
2021/12/24 09:29:07;;;;;;;31.10;4.90;;;;;;;;;;5069291;28;20148;-61
2021/12/24 09:31:34;;;;;;;34.28;4.90;;;;;;;;;;5067630;28;20059;-61
2021/12/24 09:34:00;;;;;;;33.47;5.18;;;;;;;;;;5064547;28;20578;-61
2021/12/24 09:36:28;;;;;;;27.25;4.78;;;;;;;;;;5073775;28;20060;-61
2021/12/24 09:39:00;;;;;;;28.00;5.40;;;;;;;;;;5067633;28;20069;-61
2021/12/24 09:41:27;;;;;;;28.88;4.68;;;;;;;;;;5048670;28;20050;-61
2021/12/24 09:43:56;;;;;;;26.73;5.13;;;;;;;;;;5067641;28;20049;-61
2021/12/24 09:46:22;;;;;;;26.85;4.68;;;;;;;;;;5070083;28;20080;-61
2021/12/24 09:48:49;;;;;;;29.83;4.95;;;;;;;;;;5067119;28;20057;-61
2021/12/24 09:51:15;;;;;;;25.42;4.47;;;;;;;;;;5068112;28;20144;-61
2021/12/24 09:53:42;;;;;;;32.83;4.53;;;;;;;;;;5069448;28;20063;-61
2021/12/24 09:56:08;;;;;;;27.55;4.40;;;;;;;;;;5064122;28;20470;-61
2021/12/24 09:58:35;;;;;;;32.60;5.18;;;;;;;;;;5066852;28;20583;-61
2021/12/24 10:01:01;;;;;;;29.73;5.03;;;;;;;;;;5069106;28;20049;-61
2021/12/24 10:03:28;;;;;;;32.60;4.82;;;;;;;;;;5069901;28;20049;-61
2021/12/24 10:05:55;;;;;;;38.53;5.80;;;;;;;;;;5067114;28;20052;-61
2021/12/24 10:08:22;;;;;;;34.03;5.05;;;;;;;;;;5067362;28;20076;-62
2021/12/24 10:10:51;;;;;;;19.40;4.82;;;;;;;;;;5053747;28;20081;-61
2021/12/24 10:13:43;;;;;;;21.73;4.80;;;;;;;;;;5068866;28;20538;-61
2021/12/24 10:16:22;;;;;;;25.27;4.72;;;;;;;;;;5058475;28;20057;-61
2021/12/24 10:18:49;;;;;;;18.90;4.60;;;;;;;;;;5065131;28;20582;-61
2021/12/24 10:21:17;;;;;;;24.77;5.22;;;;;;;;;;5048735;28;20471;-61
2021/12/24 10:23:48;;;;;;;22.00;5.22;;;;;;;;;;5049017;28;20148;-62
2021/12/24 10:26:16;;;;;;;28.83;5.03;;;;;;;;;;5062742;28;20879;-61
2021/12/24 10:28:50;;;;;;;31.73;5.03;;;;;;;;;;5052748;28;20520;-62
2021/12/24 10:31:21;;;;;;;26.88;4.97;;;;;;;;;;5067912;28;20052;-61
2021/12/24 10:34:06;;;;;;;32.35;4.90;;;;;;;;;;5067898;28;20574;-61
2021/12/24 10:36:32;;;;;;;30.75;4.63;;;;;;;;;;5056049;28;20083;-61
2021/12/24 10:38:59;;;;;;;32.88;5.32;;;;;;;;;;5048697;28;20053;-62
2021/12/24 10:41:28;;;;;;;31.50;5.07;;;;;;;;;;5062772;28;20140;-62
2021/12/24 10:43:54;;;;;;;25.35;5.18;;;;;;;;;;5060509;28;20563;-64
2021/12/24 10:46:22;;;;;;;21.23;4.70;;;;;;;;;;5049058;28;20055;-62
2021/12/24 10:49:08;;;;;;;30.33;4.53;;;;;;;;;;5063054;28;20139;-61
2021/12/24 10:51:54;;;;;;;21.58;4.75;;;;;;;;;;5068818;28;20061;-61
2021/12/24 10:54:24;;;;;;;33.75;5.95;;;;;;;;;;5054822;28;20144;-61
2021/12/24 10:56:52;;;;;;;26.50;4.85;;;;;;;;;;5055537;28;20059;-62
2021/12/24 10:59:37;;;;;;;31.40;5.18;;;;;;;;;;5065364;28;20144;-61
2021/12/24 11:02:08;;;;;;;30.00;5.07;;;;;;;;;;5064898;28;20059;-61
2021/12/24 11:04:35;;;;;;;25.00;4.80;;;;;;;;;;5053111;28;20053;-61
2021/12/24 11:07:01;;;;;;;30.60;4.80;;;;;;;;;;5065454;28;20171;-61
2021/12/24 11:09:28;;;;;;;31.15;4.88;;;;;;;;;;5068401;28;20139;-61
2021/12/24 11:11:58;;;;;;;28.33;5.05;;;;;;;;;;5064102;28;20143;-61
2021/12/24 11:14:25;;;;;;;25.20;4.28;;;;;;;;;;5068233;28;20491;-61
2021/12/24 11:16:51;;;;;;;23.05;5.30;;;;;;;;;;5067762;28;20142;-61
2021/12/24 11:19:18;;;;;;;21.27;4.32;;;;;;;;;;5068344;28;20527;-61
2021/12/24 11:22:01;;;;;;;24.80;4.82;;;;;;;;;;5066539;28;20053;-61
2021/12/24 11:24:27;;;;;;;27.13;5.35;;;;;;;;;;5068493;28;20503;-61
2021/12/24 11:26:53;;;;;;;21.65;5.00;;;;;;;;;;5067557;28;20045;-61
2021/12/24 11:29:20;;;;;;;28.65;4.65;;;;;;;;;;5067218;28;20057;-61
2021/12/24 11:31:46;;;;;;;21.48;5.07;;;;;;;;;;5058040;28;20054;-61
2021/12/24 11:34:13;;;;;;;23.35;5.40;;;;;;;;;;5060367;28;20541;-61
2021/12/24 11:36:39;;;;;;;29.38;4.90;;;;;;;;;;5065926;28;20084;-62
2021/12/24 11:39:09;;;;;;;33.60;6.07;;;;;;;;;;5068249;28;20052;-61
2021/12/24 11:41:37;;;;;;;29.40;5.13;;;;;;;;;;5066306;28;20053;-61
2021/12/24 11:44:06;;;;;;;28.27;5.30;;;;;;;;;;5067166;28;20063;-61
2021/12/24 11:46:34;;;;;;;25.58;6.57;;;;;;;;;;5064895;28;20431;-61
2021/12/24 11:49:00;;;;;;;26.75;5.88;;;;;;;;;;5065341;28;20511;-61
2021/12/24 11:51:28;;;;;;;26.90;6.03;;;;;;;;;;5065924;28;20136;-61
2021/12/24 11:53:57;;;;;;;31.53;6.37;;;;;;;;;;5066671;28;20047;-62
2021/12/24 11:56:24;;;;;;;20.55;4.88;;;;;;;;;;5055127;28;20141;-61
2021/12/24 11:58:54;;;;;;;25.17;5.85;;;;;;;;;;5054889;28;20053;-61
2021/12/24 12:01:22;;;;;;;25.58;5.43;;;;;;;;;;5069975;28;20076;-61
2021/12/24 12:03:53;;;;;;;20.35;6.50;;;;;;;;;;5070879;28;20081;-61
2021/12/24 12:06:22;;;;;;;30.33;6.72;;;;;;;;;;5054839;28;20149;-61
2021/12/24 12:08:49;;;;;;;25.75;5.90;;;;;;;;;;5068865;28;20179;-61
2021/12/24 12:11:16;;;;;;;36.75;6.22;;;;;;;;;;5070104;28;20064;-62
2021/12/24 12:13:47;;;;;;;18.25;5.50;;;;;;;;;;5070177;28;20055;-61
2021/12/24 12:16:17;;;;;;;25.05;6.78;;;;;;;;;;5068469;28;20063;-61
2021/12/24 12:18:48;;;;;;;27.20;5.60;;;;;;;;;;5070311;28;20057;-61
2021/12/24 12:21:19;;;;;;;19.25;5.40;;;;;;;;;;5065534;28;20045;-60
2021/12/24 12:26:23;;;;;;;;;;;;;;;;;;5050418;28;20140;-61
2021/12/24 12:29:09;;;;;;;9.15;3.28;;;;;;;;;;5049480;28;44677;-61
2021/12/24 12:31:35;;;;;;;15.15;3.42;;;;;;;;;;5066687;28;20048;-61
2021/12/24 12:34:02;;;;;;;14.32;3.83;;;;;;;;;;5069785;28;20072;-60
2021/12/24 12:36:38;;;;;;;16.02;3.95;;;;;;;;;;5070236;28;20525;-60
2021/12/24 12:39:24;;;;;;;11.30;3.63;;;;;;;;;;5059709;28;20057;-60
2021/12/24 12:41:51;;;;;;;12.15;3.67;;;;;;;;;;5069476;28;20525;-60
2021/12/24 12:44:19;;;;;;;14.45;4.53;;;;;;;;;;5070277;28;20558;-61
2021/12/24 12:46:47;;;;;;;13.38;3.85;;;;;;;;;;5070206;28;20045;-60
2021/12/24 12:49:16;;;;;;;;;;;;;;;;;;5070255;28;20143;-60
2021/12/24 12:51:42;;;;;;;;;;;;;;;;;;5069038;28;44587;-60
2021/12/24 12:54:28;;;;;;;14.48;4.93;;;;;;;;;;5068723;28;43572;-60
2021/12/24 12:57:11;;;;;;;19.05;4.80;;;;;;;;;;5067010;28;20063;-60
2021/12/24 12:59:38;;;;;;;17.48;5.25;;;;;;;;;;5068435;28;20061;-61
2021/12/24 13:02:04;;;;;;;21.20;5.10;;;;;;;;;;5067794;28;20503;-61
2021/12/24 13:04:31;;;;;;;24.05;6.10;;;;;;;;;;5069946;28;20507;-60
2021/12/24 13:06:58;;;;;;;21.30;5.32;;;;;;;;;;5067974;28;20053;-60
2021/12/24 13:09:32;;;;;;;23.98;5.57;;;;;;;;;;5069935;28;20055;-61
2021/12/24 13:11:59;;;;;;;23.85;5.60;;;;;;;;;;5067591;28;20061;-61
2021/12/24 13:14:28;;;;;;;15.27;4.30;;;;;;;;;;5067469;28;20139;-60
2021/12/24 13:17:06;;;;;;;;;;;;;;;;;;5067508;28;20053;-60
2021/12/24 13:22:32;;;;;;;19.70;4.65;;;;;;;;;;5069504;28;20224;-61
2021/12/24 13:25:01;;;;;;;13.15;4.45;;;;;;;;;;5069838;28;20084;-60
2021/12/24 13:27:39;;;;;;;13.93;4.20;;;;;;;;;;5069348;28;20053;-60
2021/12/24 13:30:20;;;;;;;13.85;4.47;;;;;;;;;;5067583;28;20055;-61
2021/12/24 13:32:48;;;;;;;11.73;4.28;;;;;;;;;;5069085;28;20061;-61
2021/12/24 13:35:16;;;;;;;17.42;4.30;;;;;;;;;;5069756;28;20080;-61
2021/12/24 13:37:46;;;;;;;15.75;4.22;;;;;;;;;;5069504;28;20132;-60
2021/12/24 13:40:18;;;;;;;20.10;5.50;;;;;;;;;;5066005;28;20107;-60
2021/12/24 13:43:06;;;;;;;19.67;5.97;;;;;;;;;;5048940;28;20508;-61
2021/12/24 13:45:35;;;;;;;;;;;;;;;;;;5049341;28;20045;-60
2021/12/24 13:48:08;;;;;;;22.42;5.45;;;;;;;;;;5048929;28;44134;-61
2021/12/24 13:56:44;;;;;;;22.48;6.57;;;;;;;;;;5049943;28;20093;-61
2021/12/24 13:59:11;;;;;;;21.73;6.55;;;;;;;;;;5050999;28;20083;-61
2021/12/24 14:01:39;;;;;;;20.33;6.47;;;;;;;;;;5054980;28;20508;-61
2021/12/24 14:04:06;;;;;;;15.95;5.57;;;;;;;;;;5049122;28;20053;-61
2021/12/24 14:06:33;;;;;;;16.67;5.82;;;;;;;;;;5056578;28;20049;-61
2021/12/24 14:09:13;;;;;;;11.77;4.15;;;;;;;;;;5069604;28;20053;-61
2021/12/24 14:11:39;;;;;;;8.73;2.25;;;;;;;;;;5067266;28;20049;-61
2021/12/24 14:14:11;;;;;;;7.43;2.10;;;;;;;;;;5062809;28;20063;-61
2021/12/24 14:19:13;;;;;;;4.53;1.77;;;;;;;;;;5055618;28;20554;-62
2021/12/24 14:21:47;;;;;;;4.80;2.10;;;;;;;;;;5056880;28;20068;-61
2021/12/24 14:24:14;;;;;;;4.75;1.95;;;;;;;;;;5063443;28;20050;-61
2021/12/24 14:27:03;;;;;;;4.32;2.08;;;;;;;;;;5065953;28;20045;-61
2021/12/24 14:29:38;;;;;;;6.68;2.03;;;;;;;;;;5062212;28;20052;-60
2021/12/24 14:32:17;;;;;;;9.57;2.08;;;;;;;;;;5066134;28;20061;-61
2021/12/24 14:34:43;;;;;;;6.97;1.95;;;;;;;;;;5087386;28;20059;-61
2021/12/24 14:37:15;;;;;;;5.95;2.00;;;;;;;;;;5074570;28;20052;-60
2021/12/24 14:39:43;;;;;;;5.38;2.15;;;;;;;;;;5089145;28;20049;-61
2021/12/24 14:42:13;;;;;;;4.03;1.95;;;;;;;;;;5048824;28;20089;-61
2021/12/24 14:44:39;;;;;;;3.67;1.73;;;;;;;;;;5047854;28;20056;-61
2021/12/24 14:47:07;;;;;;;3.45;1.67;;;;;;;;;;5056362;28;20052;-60
2021/12/24 14:49:37;;;;;;;2.90;1.60;;;;;;;;;;5069326;28;20057;-61
2021/12/24 14:52:16;;;;;;;4.68;2.17;;;;;;;;;;5067771;28;20503;-61
2021/12/24 14:55:01;;;;;;;5.43;1.90;;;;;;;;;;5068107;28;20057;-61
2021/12/24 14:57:29;;;;;;;5.63;2.08;;;;;;;;;;5055555;28;20148;-61
2021/12/24 14:59:55;;;;;;;4.28;1.75;;;;;;;;;;5068177;28;20092;-61
2021/12/24 15:02:21;;;;;;;4.65;1.83;;;;;;;;;;5068737;28;20642;-61
2021/12/24 15:04:55;;;;;;;6.85;2.20;;;;;;;;;;5067667;28;20545;-61
2021/12/24 15:07:29;;;;;;;4.18;1.95;;;;;;;;;;5068228;28;20052;-61
2021/12/24 15:10:11;;;;;;;5.95;2.33;;;;;;;;;;5066555;28;20087;-61
2021/12/24 15:12:59;;;;;;;5.07;2.65;;;;;;;;;;5052162;28;20057;-65
2021/12/24 15:15:27;;;;;;;5.63;2.60;;;;;;;;;;5062173;28;20511;-62
2021/12/24 15:17:53;;;;;;;5.07;2.40;;;;;;;;;;5068286;28;20045;-61
2021/12/24 15:20:20;;;;;;;7.70;2.92;;;;;;;;;;5060997;28;20059;-61
2021/12/24 15:22:47;;;;;;;7.07;3.30;;;;;;;;;;5048031;28;20057;-60
2021/12/24 15:25:13;;;;;;;8.15;3.15;;;;;;;;;;5068451;28;20529;-60
2021/12/24 15:27:40;;;;;;;7.25;3.42;;;;;;;;;;5066108;28;20538;-60
2021/12/24 15:30:07;;;;;;;6.50;3.30;;;;;;;;;;5062571;28;20060;-60
2021/12/24 15:32:34;;;;;;;5.63;3.20;;;;;;;;;;5057605;28;20052;-60
2021/12/24 15:35:01;;;;;;;8.10;3.63;;;;;;;;;;5066274;28;20153;-60
2021/12/24 15:37:27;;;;;;;7.60;3.45;;;;;;;;;;5066921;28;20510;-60
2021/12/24 15:39:53;;;;;;;8.20;3.38;;;;;;;;;;5066500;28;20060;-61
2021/12/24 15:42:20;;;;;;;6.65;3.13;;;;;;;;;;5062571;28;20520;-60
2021/12/24 15:44:48;;;;;;;6.55;3.00;;;;;;;;;;5057230;28;20057;-59
2021/12/24 15:47:15;;;;;;;7.47;3.22;;;;;;;;;;5058625;28;20128;-61
2021/12/24 15:49:41;;;;;;;5.95;3.53;;;;;;;;;;5061604;28;20083;-61
2021/12/24 15:52:08;;;;;;;8.00;3.47;;;;;;;;;;5066642;28;20063;-60
2021/12/24 15:54:34;;;;;;;6.78;3.10;;;;;;;;;;5067153;28;20060;-61
2021/12/24 15:57:01;;;;;;;7.63;3.88;;;;;;;;;;5067000;28;20525;-61
2021/12/24 15:59:31;;;;;;;9.00;3.50;;;;;;;;;;5065773;28;20528;-60
2021/12/24 16:01:58;;;;;;;7.53;3.85;;;;;;;;;;5067353;28;20053;-61
2021/12/24 16:04:25;;;;;;;7.43;3.45;;;;;;;;;;5064785;28;20064;-60
2021/12/24 16:06:52;;;;;;;7.32;3.50;;;;;;;;;;5055101;28;20060;-61
2021/12/24 16:09:23;;;;;;;6.57;3.63;;;;;;;;;;5056559;28;20057;-61
2021/12/24 16:11:49;;;;;;;6.25;3.72;;;;;;;;;;5058825;28;20541;-60
2021/12/24 16:14:16;;;;;;;8.75;3.72;;;;;;;;;;5064781;28;20057;-61
2021/12/24 16:16:44;;;;;;;7.63;3.80;;;;;;;;;;5065305;28;20057;-61
2021/12/24 16:19:11;;;;;;;8.52;4.10;;;;;;;;;;5064947;28;20483;-61
2021/12/24 16:21:38;;;;;;;7.45;4.00;;;;;;;;;;5064858;28;20850;-61
2021/12/24 16:24:06;;;;;;;6.80;3.80;;;;;;;;;;5064988;28;20111;-61
2021/12/24 16:26:33;;;;;;;6.80;3.20;;;;;;;;;;5065935;28;20909;-61
2021/12/24 16:29:00;;;;;;;6.93;3.65;;;;;;;;;;5065307;28;20102;-60
2021/12/24 16:31:26;;;;;;;6.40;3.10;;;;;;;;;;5066759;28;20491;-61